Current Weather

Starke County

Knox, Indiana (KOXI)

Report from: Thursday, April 25, 2024 12:55 AM EDT
Current time: Thursday, April 25, 2024 1:25 AM EDT

Nearby weather – Weather history – Daily summaries
Weather forecast

Temperature0.0°C (32.0°F)
Dew point-2.0°C (28.4°F)
Winds Calm
Visibility10 mi. (16.1 km)
Clouds Sky clear
Altimeter30.32 in.Hg (1027 mB)
Relative humidity86 %
Density altitude-2,211 ft. (-674 m)
Remarks Fully automated report
Automated weather observing station without precipitation discriminator
Flight conditions Visual Meteorological Conditions
Raw dataKOXI 250455Z AUTO 00000KT 10SM CLR 00/M02 A3032 RMK AO1
An error has occurred. This application may no longer respond until reloaded. Reload 🗙